createdAt,value
2022-09-06T00:01:12.626Z,2.07
2022-09-06T00:03:41.602Z,6.57
2022-09-06T00:06:14.879Z,3.43
2022-09-06T00:08:47.548Z,2.93
2022-09-06T00:11:16.104Z,2.50
2022-09-06T00:13:45.379Z,3.10
2022-09-06T00:16:20.350Z,4.73
2022-09-06T00:18:48.764Z,2.83
2022-09-06T00:21:19.562Z,2.33
2022-09-06T00:23:48.087Z,5.23
2022-09-06T00:26:16.530Z,2.70
2022-09-06T00:28:44.985Z,2.73
2022-09-06T00:31:25.152Z,8.20
2022-09-06T00:33:54.760Z,3.47
2022-09-06T00:36:23.581Z,4.10
2022-09-06T00:38:51.857Z,2.03
2022-09-06T00:41:20.651Z,3.20
2022-09-06T00:43:48.935Z,2.97
2022-09-06T00:46:23.076Z,3.40
2022-09-06T00:48:53.753Z,1.90
2022-09-06T00:51:22.261Z,2.33
2022-09-06T00:53:50.772Z,2.20
2022-09-06T00:56:19.018Z,6.27
2022-09-06T00:58:48.113Z,6.63
2022-09-06T01:01:16.691Z,3.33
2022-09-06T01:03:45.153Z,4.67
2022-09-06T01:06:24.931Z,3.40
2022-09-06T01:09:20.686Z,4.40
2022-09-06T01:12:08.152Z,2.67
2022-09-06T01:15:06.400Z,3.87
2022-09-06T01:17:53.247Z,3.20
2022-09-06T01:20:42.310Z,3.37
2022-09-06T01:23:29.158Z,3.47
2022-09-06T01:26:00.282Z,3.30
2022-09-06T01:28:34.386Z,5.83
2022-09-06T01:31:20.308Z,3.57
2022-09-06T01:34:08.363Z,9.13
2022-09-06T01:37:10.289Z,3.37
2022-09-06T01:39:40.564Z,8.37
2022-09-06T01:42:19.384Z,5.13
2022-09-06T01:44:55.455Z,13.53
2022-09-06T01:47:48.949Z,20.90
2022-09-06T01:50:21.030Z,10.43
2022-09-06T01:53:30.442Z,10.07
2022-09-06T01:56:20.903Z,11.27
2022-09-06T01:58:55.513Z,6.60
2022-09-06T02:02:05.611Z,7.83
2022-09-06T02:04:46.590Z,6.30
2022-09-06T02:07:29.316Z,5.00
2022-09-06T02:10:02.060Z,4.40
2022-09-06T02:12:30.495Z,2.77
2022-09-06T02:15:05.638Z,2.10
2022-09-06T02:17:36.549Z,3.47
2022-09-06T02:20:14.874Z,3.67
2022-09-06T02:22:45.254Z,3.27
2022-09-06T02:25:20.292Z,4.03
2022-09-06T02:27:48.631Z,7.37
2022-09-06T02:30:17.582Z,5.93
2022-09-06T02:32:54.123Z,4.10
2022-09-06T02:35:22.417Z,5.77
2022-09-06T02:37:50.956Z,6.07
2022-09-06T02:40:19.260Z,4.47
2022-09-06T02:42:47.685Z,3.63
2022-09-06T02:45:16.192Z,6.83
2022-09-06T02:47:44.484Z,3.90
2022-09-06T02:50:13.569Z,3.23
2022-09-06T02:52:42.464Z,3.47
2022-09-06T02:55:11.917Z,4.40
2022-09-06T02:57:40.760Z,5.43
2022-09-06T03:00:09.656Z,4.17
2022-09-06T03:02:37.926Z,3.93
2022-09-06T03:05:06.403Z,7.03
2022-09-06T03:07:35.172Z,3.43
2022-09-06T03:10:05.298Z,2.57
2022-09-06T03:12:33.607Z,2.60
2022-09-06T03:15:01.840Z,2.87
2022-09-06T03:17:30.060Z,7.33
2022-09-06T03:19:58.337Z,2.97
2022-09-06T03:22:26.790Z,2.83
2022-09-06T03:24:55.051Z,4.13
2022-09-06T03:27:23.791Z,3.97
2022-09-06T03:29:52.076Z,3.93
2022-09-06T03:32:20.436Z,5.73
2022-09-06T03:34:48.735Z,3.20
2022-09-06T03:37:17.048Z,3.17
2022-09-06T03:39:46.460Z,5.63
2022-09-06T03:42:15.425Z,3.90
2022-09-06T03:44:43.871Z,5.67
2022-09-06T03:47:12.176Z,6.93
2022-09-06T03:49:41.121Z,4.80
2022-09-06T03:52:09.543Z,9.13
2022-09-06T03:54:37.816Z,9.47
2022-09-06T03:57:06.149Z,6.17
2022-09-06T03:59:35.192Z,7.70
2022-09-06T04:02:03.661Z,5.00
2022-09-06T04:04:32.110Z,5.27
2022-09-06T04:07:00.513Z,9.10
2022-09-06T04:09:28.896Z,8.43
2022-09-06T04:11:57.655Z,11.67
2022-09-06T04:14:25.971Z,23.13
2022-09-06T04:16:54.364Z,25.17
2022-09-06T04:19:24.076Z,20.03
2022-09-06T04:21:52.299Z,25.43
2022-09-06T04:24:21.837Z,17.27
2022-09-06T04:26:50.116Z,18.67
2022-09-06T04:29:18.487Z,17.30
2022-09-06T04:31:47.383Z,14.63
2022-09-06T04:34:17.318Z,17.27
2022-09-06T04:36:48.466Z,13.67
2022-09-06T04:39:17.399Z,16.93
2022-09-06T04:41:45.892Z,12.37
2022-09-06T04:44:14.266Z,12.30
2022-09-06T04:46:42.761Z,9.37
2022-09-06T04:49:11.204Z,7.23
2022-09-06T04:51:39.908Z,9.13
2022-09-06T04:54:08.280Z,10.70
2022-09-06T04:56:36.677Z,11.23
2022-09-06T04:59:04.961Z,12.37
2022-09-06T05:01:33.390Z,9.53
2022-09-06T05:04:01.860Z,9.10
2022-09-06T05:06:30.371Z,8.20
2022-09-06T05:08:59.290Z,9.70
2022-09-06T05:11:27.944Z,9.83
2022-09-06T05:13:56.433Z,9.00
2022-09-06T05:16:25.405Z,6.70
2022-09-06T05:18:55.989Z,6.33
2022-09-06T05:21:31.684Z,7.60
2022-09-06T05:24:04.342Z,8.70
2022-09-06T05:26:32.949Z,8.23
2022-09-06T05:29:01.245Z,7.07
2022-09-06T05:31:31.175Z,10.83
2022-09-06T05:33:59.763Z,9.20
2022-09-06T05:36:28.825Z,16.73
2022-09-06T05:38:57.296Z,10.17
2022-09-06T05:41:26.147Z,11.87
2022-09-06T05:43:54.646Z,13.93
2022-09-06T05:46:23.014Z,9.30
2022-09-06T05:49:01.426Z,10.43
2022-09-06T05:51:29.853Z,9.70
2022-09-06T05:53:58.253Z,10.90
2022-09-06T05:56:26.627Z,9.67
2022-09-06T05:58:55.213Z,9.17
2022-09-06T06:01:27.598Z,13.67
2022-09-06T06:04:00.671Z,10.30
2022-09-06T06:06:31.124Z,9.23
2022-09-06T06:08:59.897Z,11.33
2022-09-06T06:11:28.494Z,10.00
2022-09-06T06:13:56.988Z,12.93
2022-09-06T06:16:25.909Z,11.17
2022-09-06T06:18:54.544Z,10.20
2022-09-06T06:21:26.088Z,8.63
2022-09-06T06:23:55.961Z,9.40
2022-09-06T06:26:24.735Z,8.73
2022-09-06T06:28:53.859Z,10.20
2022-09-06T06:31:22.933Z,5.90
2022-09-06T06:33:51.315Z,6.63
2022-09-06T06:36:22.051Z,10.90
2022-09-06T06:38:52.844Z,6.82
2022-09-06T06:41:24.304Z,7.43
2022-09-06T06:43:56.553Z,7.53
2022-09-06T06:46:26.962Z,14.57
2022-09-06T06:48:55.643Z,7.63
2022-09-06T06:51:29.035Z,7.22
2022-09-06T06:53:58.314Z,7.87
2022-09-06T06:56:31.459Z,6.53
2022-09-06T06:59:01.471Z,7.32
2022-09-06T07:01:31.310Z,6.82
2022-09-06T07:04:00.487Z,6.25
2022-09-06T07:09:18.674Z,6.30
2022-09-06T07:11:48.897Z,6.60
2022-09-06T07:14:17.969Z,4.93
2022-09-06T07:16:46.500Z,4.68
2022-09-06T07:22:05.370Z,4.05
2022-09-06T07:24:34.226Z,4.28
2022-09-06T07:29:51.845Z,3.58
2022-09-06T07:32:20.879Z,4.70
2022-09-06T07:34:49.266Z,6.70
2022-09-06T07:37:17.887Z,2.72
2022-09-06T07:39:46.575Z,5.90
2022-09-06T07:42:16.563Z,5.43
2022-09-06T07:44:44.929Z,3.47
2022-09-06T07:55:38.682Z,2.55
2022-09-06T07:58:07.640Z,2.92
2022-09-06T08:00:36.524Z,3.63
2022-09-06T08:03:04.939Z,4.20
2022-09-06T08:11:12.162Z,6.75
2022-09-06T08:13:40.523Z,4.40
2022-09-06T08:16:11.509Z,8.45
2022-09-06T08:18:40.122Z,2.30
2022-09-06T08:21:13.117Z,2.80
2022-09-06T08:23:45.350Z,2.95
2022-09-06T08:26:15.006Z,3.08
2022-09-06T08:28:43.585Z,3.88
2022-09-06T08:31:13.611Z,3.35
2022-09-06T08:33:42.457Z,2.95
2022-09-06T08:36:11.721Z,2.97
2022-09-06T08:38:41.381Z,2.83
2022-09-06T08:41:12.276Z,3.38
2022-09-06T08:43:48.997Z,2.45
2022-09-06T08:46:17.337Z,9.00
2022-09-06T08:48:46.037Z,3.15
2022-09-06T08:51:46.627Z,2.60
2022-09-06T08:54:22.798Z,4.40
2022-09-06T08:57:16.254Z,3.83
2022-09-06T08:59:44.952Z,2.80
2022-09-06T09:02:18.610Z,2.47
2022-09-06T09:04:53.957Z,6.00
2022-09-06T09:07:54.572Z,2.40
2022-09-06T09:10:29.621Z,2.97
2022-09-06T09:12:59.070Z,2.40
2022-09-06T09:15:29.130Z,2.85
2022-09-06T09:17:57.660Z,2.17
2022-09-06T09:20:26.050Z,2.38
2022-09-06T09:22:54.378Z,4.68
2022-09-06T09:25:23.672Z,3.83
2022-09-06T09:28:01.532Z,2.40
2022-09-06T09:30:49.141Z,2.50
2022-09-06T09:33:31.129Z,2.08
2022-09-06T09:36:10.417Z,2.55
2022-09-06T09:38:45.859Z,2.40
2022-09-06T09:41:34.503Z,2.40
2022-09-06T09:44:05.923Z,1.95
2022-09-06T09:46:39.363Z,2.20
2022-09-06T09:49:15.881Z,4.97
2022-09-06T09:51:46.388Z,2.58
2022-09-06T09:54:15.911Z,2.53
2022-09-06T09:56:50.047Z,2.75
2022-09-06T09:59:26.723Z,2.20
2022-09-06T10:01:57.408Z,2.63
2022-09-06T10:04:48.489Z,2.05
2022-09-06T10:07:18.767Z,2.65
2022-09-06T10:10:10.798Z,2.38
2022-09-06T10:12:40.557Z,2.70
2022-09-06T10:15:12.084Z,4.03
2022-09-06T10:17:52.871Z,2.35
2022-09-06T10:20:24.317Z,4.88
2022-09-06T10:23:17.795Z,2.17
2022-09-06T10:25:49.538Z,2.08
2022-09-06T10:28:58.458Z,2.08
2022-09-06T10:31:42.550Z,3.22
2022-09-06T10:34:53.919Z,2.08
2022-09-06T10:37:54.032Z,1.70
2022-09-06T10:40:29.213Z,1.70
2022-09-06T10:43:00.436Z,1.60
2022-09-06T10:46:09.740Z,2.08
2022-09-06T10:48:42.539Z,2.05
2022-09-06T10:51:29.541Z,2.83
2022-09-06T10:54:10.511Z,6.00
2022-09-06T10:56:56.605Z,5.75
2022-09-06T11:00:05.321Z,2.88
2022-09-06T11:05:52.183Z,2.13
2022-09-06T11:11:35.760Z,2.10
2022-09-06T11:14:09.356Z,2.50
2022-09-06T11:16:48.623Z,1.50
2022-09-06T11:19:35.171Z,2.17
2022-09-06T11:22:30.485Z,1.90
2022-09-06T11:25:05.921Z,2.05
2022-09-06T11:27:36.540Z,1.75
2022-09-06T11:30:07.775Z,2.00
2022-09-06T11:32:45.045Z,2.17
2022-09-06T11:35:33.108Z,2.28
2022-09-06T11:38:17.105Z,4.85
2022-09-06T11:40:48.888Z,2.15
2022-09-06T11:43:19.181Z,2.15
2022-09-06T11:45:51.895Z,2.13
2022-09-06T11:48:35.659Z,2.00
2022-09-06T11:51:19.824Z,1.67
2022-09-06T11:53:51.372Z,1.58
2022-09-06T11:56:34.748Z,4.30
2022-09-06T11:59:20.086Z,1.73
2022-09-06T12:02:09.027Z,2.00
2022-09-06T12:05:04.658Z,4.28
2022-09-06T12:07:36.203Z,3.10
2022-09-06T12:10:42.446Z,2.17
2022-09-06T12:13:43.206Z,1.90
2022-09-06T12:16:13.033Z,2.17
2022-09-06T12:18:52.341Z,1.92
2022-09-06T12:21:53.247Z,7.38
2022-09-06T12:24:34.542Z,2.53
2022-09-06T12:27:16.004Z,1.92
2022-09-06T12:29:50.686Z,2.08
2022-09-06T12:32:21.028Z,2.20
2022-09-06T12:37:56.316Z,1.60
2022-09-06T12:40:26.570Z,1.67
2022-09-06T12:42:55.949Z,1.60
2022-09-06T12:45:27.391Z,1.70
2022-09-06T12:48:08.850Z,5.55
2022-09-06T12:50:37.271Z,3.38
2022-09-06T12:53:22.764Z,1.88
2022-09-06T12:56:06.550Z,4.88
2022-09-06T12:58:36.536Z,3.92
2022-09-06T13:01:17.558Z,1.85
2022-09-06T13:03:54.398Z,1.60
2022-09-06T13:06:27.294Z,2.17
2022-09-06T13:08:57.428Z,3.40
2022-09-06T13:11:37.321Z,2.67
2022-09-06T13:14:14.398Z,1.85
2022-09-06T13:16:47.604Z,3.58
2022-09-06T13:19:30.113Z,5.38
2022-09-06T13:22:00.662Z,1.77
2022-09-06T13:24:36.313Z,4.63
2022-09-06T13:27:37.871Z,1.70
2022-09-06T13:30:10.248Z,3.08
2022-09-06T13:32:46.470Z,2.10
2022-09-06T13:35:24.335Z,4.78
2022-09-06T13:37:53.271Z,2.03
2022-09-06T13:41:09.687Z,2.10
2022-09-06T13:43:35.215Z,2.75
2022-09-06T13:46:08.211Z,2.00
2022-09-06T13:48:37.002Z,2.83
2022-09-06T13:51:10.733Z,2.08
2022-09-06T13:53:40.317Z,2.28
2022-09-06T13:56:09.088Z,3.80
2022-09-06T13:58:37.524Z,1.92
2022-09-06T14:01:10.266Z,2.00
2022-09-06T14:03:40.909Z,3.58
2022-09-06T14:06:11.554Z,2.13
2022-09-06T14:09:05.730Z,2.85
2022-09-06T14:11:30.479Z,2.90
2022-09-06T14:13:59.500Z,3.92
2022-09-06T14:16:29.046Z,1.70
2022-09-06T14:18:59.157Z,2.30
2022-09-06T14:21:27.587Z,3.42
2022-09-06T14:23:58.919Z,2.53
2022-09-06T14:26:30.563Z,2.15
2022-09-06T14:28:59.085Z,2.72
2022-09-06T14:31:28.020Z,6.95
2022-09-06T14:33:56.821Z,7.03
2022-09-06T14:36:27.977Z,2.70
2022-09-06T14:38:58.778Z,2.38
2022-09-06T14:41:27.657Z,1.92
2022-09-06T14:43:58.470Z,2.03
2022-09-06T14:46:30.494Z,1.75
2022-09-06T14:49:00.387Z,2.35
2022-09-06T14:51:29.320Z,2.45
2022-09-06T14:54:00.631Z,2.58
2022-09-06T14:56:30.739Z,2.35
2022-09-06T14:59:00.548Z,8.30
2022-09-06T15:01:33.062Z,40.05
2022-09-06T15:04:09.036Z,9.85
2022-09-06T15:06:40.509Z,8.27
2022-09-06T15:09:12.174Z,10.18
2022-09-06T15:11:51.986Z,4.55
2022-09-06T15:14:28.242Z,3.28
2022-09-06T15:17:00.161Z,2.10
2022-09-06T15:19:29.390Z,4.65
2022-09-06T15:21:58.169Z,4.25
2022-09-06T15:24:27.674Z,15.02
2022-09-06T15:27:00.239Z,11.32
2022-09-06T15:29:29.081Z,7.05
2022-09-06T15:31:58.773Z,6.63
2022-09-06T15:34:27.297Z,5.13
2022-09-06T15:36:57.356Z,5.30
2022-09-06T15:39:25.935Z,7.80
2022-09-06T15:41:58.276Z,5.20
2022-09-06T15:44:29.084Z,3.35
2022-09-06T15:46:59.630Z,3.90
2022-09-06T15:49:31.251Z,3.22
2022-09-06T15:52:02.373Z,4.45
2022-09-06T15:54:49.539Z,2.53
2022-09-06T15:57:18.764Z,5.40
2022-09-06T15:59:48.880Z,8.18
2022-09-06T16:02:17.400Z,14.05
2022-09-06T16:04:47.054Z,13.35
2022-09-06T16:07:16.221Z,5.90
2022-09-06T16:09:48.045Z,4.22
2022-09-06T16:12:17.003Z,6.78
2022-09-06T16:14:48.528Z,3.60
2022-09-06T16:17:21.929Z,3.58
2022-09-06T16:19:51.928Z,2.53
2022-09-06T16:22:24.025Z,3.03
2022-09-06T16:24:53.939Z,4.10
2022-09-06T16:27:22.353Z,2.83
2022-09-06T16:29:56.506Z,4.70
2022-09-06T16:32:26.270Z,3.05
2022-09-06T16:34:55.434Z,3.38
2022-09-06T16:37:24.616Z,2.42
2022-09-06T16:39:56.343Z,6.15
2022-09-06T16:42:25.782Z,2.35
2022-09-06T16:44:56.688Z,3.13
2022-09-06T16:47:25.235Z,6.00
2022-09-06T16:49:53.752Z,7.05
2022-09-06T16:52:24.319Z,9.35
2022-09-06T16:54:54.221Z,5.75
2022-09-06T16:57:23.191Z,5.78
2022-09-06T16:59:53.905Z,4.45
2022-09-06T17:02:23.521Z,5.30
2022-09-06T17:04:54.958Z,8.80
2022-09-06T17:07:24.179Z,5.43
2022-09-06T17:09:52.524Z,4.78
2022-09-06T17:12:21.384Z,4.90
2022-09-06T17:14:49.773Z,7.38
2022-09-06T17:17:18.769Z,3.75
2022-09-06T17:19:51.626Z,3.67
2022-09-06T17:22:23.102Z,5.32
2022-09-06T17:24:53.062Z,10.35
2022-09-06T17:27:23.507Z,10.32
2022-09-06T17:29:53.310Z,34.20
2022-09-06T17:32:25.007Z,18.27
2022-09-06T17:35:04.229Z,12.57
2022-09-06T17:37:35.749Z,11.93
2022-09-06T17:40:10.901Z,5.70
2022-09-06T17:42:39.413Z,11.48
2022-09-06T17:45:10.137Z,4.22
2022-09-06T17:47:38.743Z,8.27
2022-09-06T17:50:10.287Z,10.27
2022-09-06T17:52:40.443Z,12.02
2022-09-06T17:55:09.272Z,9.98
2022-09-06T17:57:38.283Z,10.15
2022-09-06T18:00:11.371Z,7.00
2022-09-06T18:02:41.383Z,7.95
2022-09-06T18:05:12.387Z,8.57
2022-09-06T18:07:42.259Z,12.20
2022-09-06T18:10:11.218Z,13.10
2022-09-06T18:12:39.623Z,11.20
2022-09-06T18:15:10.110Z,18.35
2022-09-06T18:17:38.630Z,16.08
2022-09-06T18:20:08.099Z,21.33
2022-09-06T18:22:43.976Z,19.77
2022-09-06T18:25:15.213Z,9.02
2022-09-06T18:27:50.477Z,10.45
2022-09-06T18:30:20.264Z,7.25
2022-09-06T18:32:48.855Z,15.25
2022-09-06T18:35:18.571Z,18.00
2022-09-06T18:37:48.148Z,13.93
2022-09-06T18:40:45.701Z,14.80
2022-09-06T18:46:13.952Z,10.40
2022-09-06T18:48:47.767Z,9.07
2022-09-06T18:51:16.734Z,8.70
2022-09-06T18:53:45.278Z,16.38
2022-09-06T18:56:14.909Z,14.73
2022-09-06T18:58:43.548Z,15.43
2022-09-06T19:01:14.280Z,15.52
2022-09-06T19:03:45.410Z,13.73
2022-09-06T19:06:17.017Z,8.25
2022-09-06T19:08:47.902Z,9.82
2022-09-06T19:11:19.549Z,17.27
2022-09-06T19:14:19.464Z,9.45
2022-09-06T19:16:55.056Z,8.68
2022-09-06T19:19:25.944Z,10.57
2022-09-06T19:21:59.797Z,15.80
2022-09-06T19:24:31.570Z,12.77
2022-09-06T19:27:05.715Z,11.80
2022-09-06T19:29:38.064Z,18.80
2022-09-06T19:32:16.221Z,14.05
2022-09-06T19:35:06.359Z,16.08
2022-09-06T19:37:38.518Z,13.23
2022-09-06T19:40:08.416Z,10.98
2022-09-06T19:42:41.139Z,13.48
2022-09-06T19:45:12.787Z,10.25
2022-09-06T19:47:43.778Z,9.23
2022-09-06T19:50:12.843Z,7.60
2022-09-06T19:52:42.641Z,11.82
2022-09-06T19:55:11.019Z,9.07
2022-09-06T19:57:40.034Z,9.48
2022-09-06T20:00:10.780Z,9.07
2022-09-06T20:02:43.084Z,5.63
2022-09-06T20:05:16.883Z,6.85
2022-09-06T20:07:45.299Z,12.77
2022-09-06T20:10:15.258Z,14.85
2022-09-06T20:12:47.540Z,15.38
2022-09-06T20:15:39.168Z,23.40
2022-09-06T20:18:20.349Z,21.92
2022-09-06T20:21:02.970Z,16.27
2022-09-06T20:23:32.282Z,11.60
2022-09-06T20:26:06.142Z,11.05
2022-09-06T20:28:38.704Z,11.52
2022-09-06T20:31:11.149Z,9.70
2022-09-06T20:33:40.521Z,11.82
2022-09-06T20:36:12.900Z,10.93
2022-09-06T20:38:43.270Z,24.48
2022-09-06T20:41:16.239Z,14.73
2022-09-06T20:43:44.683Z,14.50
2022-09-06T20:46:18.103Z,13.73
2022-09-06T20:48:52.568Z,13.67
2022-09-06T20:51:24.185Z,12.30
2022-09-06T20:53:55.121Z,11.15
2022-09-06T20:56:26.306Z,8.73
2022-09-06T20:59:03.483Z,7.55
2022-09-06T21:01:34.887Z,6.53
2022-09-06T21:04:04.876Z,10.10
2022-09-06T21:06:36.491Z,9.70
2022-09-06T21:09:10.878Z,8.60
2022-09-06T21:11:39.309Z,5.72
2022-09-06T21:14:07.936Z,4.88
2022-09-06T21:16:36.956Z,4.63
2022-09-06T21:19:08.779Z,5.28
2022-09-06T21:21:37.141Z,4.73
2022-09-06T21:24:06.657Z,5.23
2022-09-06T21:26:35.088Z,4.30
2022-09-06T21:29:03.961Z,5.37
2022-09-06T21:31:33.704Z,5.67
2022-09-06T21:34:03.747Z,5.67
2022-09-06T21:36:37.390Z,5.07
2022-09-06T21:39:09.849Z,2.97
2022-09-06T21:41:39.301Z,5.97
2022-09-06T21:44:08.228Z,3.67
2022-09-06T21:46:37.689Z,2.90
2022-09-06T21:49:10.398Z,5.43
2022-09-06T21:51:39.040Z,7.13
2022-09-06T21:54:07.431Z,4.87
2022-09-06T21:56:36.771Z,3.13
2022-09-06T21:59:05.352Z,3.40
2022-09-06T22:01:35.484Z,5.70
2022-09-06T22:04:04.464Z,3.13
2022-09-06T22:06:33.862Z,2.83
2022-09-06T22:09:03.942Z,2.70
2022-09-06T22:11:33.192Z,2.83
2022-09-06T22:14:04.291Z,4.90
2022-09-06T22:16:34.574Z,4.97
2022-09-06T22:19:08.347Z,3.97
2022-09-06T22:21:36.694Z,3.93
2022-09-06T22:24:07.663Z,4.70
2022-09-06T22:26:37.145Z,3.63
2022-09-06T22:29:07.103Z,7.03
2022-09-06T22:31:35.809Z,4.67
2022-09-06T22:34:04.929Z,4.30
2022-09-06T22:36:33.791Z,3.67
2022-09-06T22:39:02.096Z,2.50
2022-09-06T22:41:31.492Z,3.13
2022-09-06T22:44:00.852Z,4.10
2022-09-06T22:46:29.502Z,3.13
2022-09-06T22:48:58.687Z,2.40
2022-09-06T22:51:27.472Z,3.50
2022-09-06T22:53:55.898Z,6.43
2022-09-06T22:56:24.758Z,4.70
2022-09-06T22:58:53.129Z,3.57
2022-09-06T23:01:21.457Z,6.03
2022-09-06T23:03:51.466Z,5.27
2022-09-06T23:06:19.788Z,11.67
2022-09-06T23:08:48.156Z,8.37
2022-09-06T23:11:17.383Z,6.60
2022-09-06T23:13:46.432Z,7.27
2022-09-06T23:16:18.940Z,15.30
2022-09-06T23:18:48.086Z,7.10
2022-09-06T23:21:18.231Z,5.27
2022-09-06T23:23:47.127Z,5.77
2022-09-06T23:26:20.054Z,6.23
2022-09-06T23:28:51.890Z,9.50
2022-09-06T23:31:20.163Z,13.50
2022-09-06T23:33:51.896Z,7.43
2022-09-06T23:36:20.069Z,9.37
2022-09-06T23:38:48.352Z,12.50
2022-09-06T23:41:17.327Z,8.83
2022-09-06T23:43:45.670Z,9.20
2022-09-06T23:46:15.564Z,8.93
2022-09-06T23:48:43.897Z,7.57
2022-09-06T23:51:12.426Z,9.67
2022-09-06T23:53:41.356Z,7.90
2022-09-06T23:56:10.302Z,8.10
2022-09-06T23:58:39.360Z,9.70
